Time;durP1;ratioP1;P1;durP2;ratioP2;P2;SDS_P1;SDS_P2;PMS_P1;PMS_P2;Temp;Humidity;BMP_temperature;BMP_pressure;BME280_temperature;BME280_humidity;BME280_pressure;Samples;Min_cycle;Max_cycle;Signal;HPM_P1;HPM_P2
2021/04/20 00:00:30;;;;;;;7.40;4.65;;;10.30;99.90;;;;;;5078777;28;20047;-44
2021/04/20 00:02:56;;;;;;;7.85;4.70;;;10.40;99.90;;;;;;5097060;28;20069;-48
2021/04/20 00:05:22;;;;;;;6.40;4.10;;;10.40;99.90;;;;;;5074932;28;20523;-43
2021/04/20 00:07:48;;;;;;;9.20;4.70;;;10.40;99.90;;;;;;5074515;28;20049;-49
2021/04/20 00:10:16;;;;;;;7.38;3.85;;;10.30;99.90;;;;;;5074511;28;20040;-42
2021/04/20 00:12:42;;;;;;;8.57;4.63;;;10.20;99.90;;;;;;5074708;28;20044;-44
2021/04/20 00:15:14;;;;;;;6.78;3.92;;;10.30;99.90;;;;;;5057708;28;20032;-48
2021/04/20 00:17:40;;;;;;;8.95;4.95;;;10.30;99.90;;;;;;5057981;28;20044;-46
2021/04/20 00:20:08;;;;;;;6.85;4.40;;;10.20;99.90;;;;;;5074404;28;20123;-43
2021/04/20 00:22:34;;;;;;;7.75;4.78;;;10.20;99.90;;;;;;5058230;28;20037;-45
2021/04/20 00:25:00;;;;;;;8.13;5.13;;;10.10;99.90;;;;;;5074576;28;20489;-47
2021/04/20 00:27:26;;;;;;;6.70;4.70;;;10.20;99.90;;;;;;5074692;28;20593;-48
2021/04/20 00:29:52;;;;;;;8.82;5.28;;;10.20;99.90;;;;;;5074427;28;20044;-43
2021/04/20 00:32:18;;;;;;;7.63;4.35;;;10.20;99.90;;;;;;5074147;28;20038;-48
2021/04/20 00:34:43;;;;;;;8.43;4.80;;;10.30;99.90;;;;;;5057458;28;20040;-47
2021/04/20 00:37:09;;;;;;;7.63;4.15;;;10.20;99.90;;;;;;5088041;28;20055;-46
2021/04/20 00:39:35;;;;;;;7.80;4.40;;;10.20;99.90;;;;;;5077778;28;20141;-46
2021/04/20 00:42:03;;;;;;;6.82;4.93;;;10.10;99.90;;;;;;5094900;28;20040;-43
2021/04/20 00:44:28;;;;;;;8.73;5.60;;;10.10;99.90;;;;;;5096506;28;20039;-49
2021/04/20 00:46:54;;;;;;;7.45;4.72;;;10.10;99.90;;;;;;5060726;28;20044;-50
2021/04/20 00:49:20;;;;;;;5.55;3.92;;;10.10;99.90;;;;;;5095339;28;20488;-50
2021/04/20 00:51:46;;;;;;;5.55;3.97;;;10.10;99.90;;;;;;5096472;28;20039;-51
2021/04/20 00:54:12;;;;;;;5.10;3.83;;;10.00;99.90;;;;;;5094581;28;20040;-47
2021/04/20 00:56:38;;;;;;;6.25;3.78;;;10.10;99.90;;;;;;5077616;28;20454;-50
2021/04/20 00:59:03;;;;;;;6.82;3.90;;;10.20;99.90;;;;;;5096203;28;20111;-45
2021/04/20 01:01:29;;;;;;;11.52;6.35;;;10.10;99.90;;;;;;5096481;28;20028;-47
2021/04/20 01:03:55;;;;;;;13.45;8.45;;;10.20;99.90;;;;;;5060711;28;20076;-46
2021/04/20 01:06:21;;;;;;;13.95;8.45;;;9.90;99.90;;;;;;5095662;28;20056;-47
2021/04/20 01:08:47;;;;;;;7.93;5.00;;;9.90;99.90;;;;;;5095976;28;20101;-45
2021/04/20 01:11:14;;;;;;;6.65;4.55;;;9.90;99.90;;;;;;5093872;28;20040;-48
2021/04/20 01:13:40;;;;;;;5.25;3.55;;;9.90;99.90;;;;;;5096329;28;20107;-49
2021/04/20 01:16:06;;;;;;;5.97;3.25;;;9.90;99.90;;;;;;5095991;28;20458;-47
2021/04/20 01:18:38;;;;;;;7.10;3.30;;;9.90;99.90;;;;;;5095709;28;20070;-45
2021/04/20 01:21:06;;;;;;;;;;;10.00;99.90;;;;;;5096176;28;20073;-45
2021/04/20 01:23:37;;;;;;;4.05;3.00;;;9.70;99.90;;;;;;5096261;28;19939;-47
2021/04/20 01:26:04;;;;;;;3.53;2.22;;;;;;;;;;5096109;28;20036;-46
2021/04/20 01:28:31;;;;;;;3.10;2.13;;;9.70;99.90;;;;;;5095556;28;20112;-47
2021/04/20 01:30:58;;;;;;;3.13;2.28;;;9.70;99.90;;;;;;5095325;28;20376;-46
2021/04/20 01:33:24;;;;;;;3.78;2.40;;;9.70;99.90;;;;;;5095550;28;20036;-49
2021/04/20 01:35:50;;;;;;;4.10;2.25;;;9.70;99.90;;;;;;5095821;28;20039;-48
2021/04/20 01:38:18;;;;;;;3.38;2.45;;;9.70;99.90;;;;;;5076714;28;20505;-46
2021/04/20 01:40:43;;;;;;;6.35;2.80;;;9.70;99.90;;;;;;5095252;28;20035;-45
2021/04/20 01:43:13;;;;;;;3.85;2.50;;;9.70;99.90;;;;;;5095899;28;20032;-48
2021/04/20 01:45:42;;;;;;;3.47;2.20;;;9.70;99.90;;;;;;5095414;28;20036;-47
2021/04/20 01:48:10;;;;;;;3.70;2.72;;;9.50;99.90;;;;;;5094778;28;20123;-46
2021/04/20 01:50:39;;;;;;;4.40;2.35;;;9.60;99.90;;;;;;5095508;28;20374;-46
2021/04/20 01:53:05;;;;;;;3.67;2.08;;;9.60;99.90;;;;;;5095518;28;20047;-46
2021/04/20 01:55:31;;;;;;;3.20;2.30;;;9.70;99.90;;;;;;5076455;28;20048;-47
2021/04/20 01:57:57;;;;;;;3.30;2.10;;;9.60;99.90;;;;;;5094797;28;20035;-49
2021/04/20 02:00:25;;;;;;;3.25;2.30;;;9.70;99.90;;;;;;5094822;28;20052;-47
2021/04/20 02:02:51;;;;;;;2.50;2.15;;;9.70;99.90;;;;;;5095323;28;20434;-47
2021/04/20 02:05:18;;;;;;;4.78;2.30;;;9.70;99.90;;;;;;5094795;28;20032;-46
2021/04/20 02:07:44;;;;;;;3.83;2.47;;;9.60;99.90;;;;;;5094743;28;20040;-47
2021/04/20 02:10:13;;;;;;;3.30;2.03;;;9.60;99.90;;;;;;5092975;28;20050;-48
2021/04/20 02:12:39;;;;;;;3.80;2.25;;;9.70;99.90;;;;;;5026315;28;20398;-46
2021/04/20 02:15:08;;;;;;;4.35;2.80;;;9.60;99.90;;;;;;5095036;28;20028;-46
2021/04/20 02:17:34;;;;;;;3.80;2.40;;;9.70;99.90;;;;;;5075882;28;20044;-46
2021/04/20 02:20:01;;;;;;;3.17;2.22;;;9.70;99.90;;;;;;5094652;28;20020;-49
2021/04/20 02:22:27;;;;;;;3.03;2.22;;;9.60;99.90;;;;;;5095064;28;20024;-47
2021/04/20 02:24:53;;;;;;;2.50;2.10;;;9.60;99.90;;;;;;5075633;28;20039;-48
2021/04/20 02:27:19;;;;;;;3.03;2.33;;;9.70;99.90;;;;;;5094669;28;20036;-45
2021/04/20 02:29:45;;;;;;;4.68;2.42;;;9.60;99.90;;;;;;5094258;28;20071;-48
2021/04/20 02:32:10;;;;;;;4.05;2.42;;;9.70;99.90;;;;;;5094215;28;20386;-47
2021/04/20 02:34:36;;;;;;;3.33;2.40;;;9.70;99.90;;;;;;5094350;28;20060;-47
2021/04/20 02:37:03;;;;;;;5.30;2.47;;;9.70;99.90;;;;;;5092563;28;20539;-46
2021/04/20 02:39:29;;;;;;;3.65;2.50;;;9.80;99.90;;;;;;5093991;28;20103;-45
2021/04/20 02:41:55;;;;;;;3.83;2.80;;;9.80;99.90;;;;;;5092314;28;20036;-47
2021/04/20 02:44:21;;;;;;;3.55;2.63;;;9.80;99.90;;;;;;5092240;28;20085;-46
2021/04/20 02:46:47;;;;;;;3.83;2.53;;;9.90;99.90;;;;;;5075733;28;20032;-46
2021/04/20 02:49:14;;;;;;;3.83;2.45;;;9.90;99.90;;;;;;5094597;28;20039;-48
2021/04/20 02:51:42;;;;;;;4.20;2.33;;;9.90;99.90;;;;;;5092211;28;20480;-44
2021/04/20 02:54:10;;;;;;;3.83;2.45;;;9.80;99.90;;;;;;5092451;28;20032;-44
2021/04/20 02:56:36;;;;;;;3.53;2.22;;;9.80;99.90;;;;;;5093847;28;20036;-47
2021/04/20 02:59:05;;;;;;;4.05;2.92;;;9.70;99.90;;;;;;5093886;28;20478;-48
2021/04/20 03:01:35;;;;;;;3.90;2.58;;;9.70;99.90;;;;;;5091676;28;20035;-46
2021/04/20 03:04:01;;;;;;;4.25;2.97;;;9.80;99.90;;;;;;5093743;28;20032;-48
2021/04/20 03:06:27;;;;;;;4.15;2.88;;;9.70;99.90;;;;;;5093742;28;20036;-46
2021/04/20 03:08:53;;;;;;;4.00;2.42;;;9.80;99.90;;;;;;5091731;28;20097;-48
2021/04/20 03:11:38;;;;;;;3.17;2.60;;;9.70;99.90;;;;;;5092988;28;20107;-48
2021/04/20 03:14:05;;;;;;;3.72;2.45;;;9.70;99.90;;;;;;5093744;28;20023;-46
2021/04/20 03:16:32;;;;;;;4.53;2.60;;;9.70;99.90;;;;;;5093865;28;20137;-46
2021/04/20 03:18:59;;;;;;;4.97;2.88;;;9.60;99.90;;;;;;5091953;28;20040;-47
2021/04/20 03:21:26;;;;;;;4.70;3.00;;;9.70;99.90;;;;;;5072070;28;20142;-46
2021/04/20 03:23:54;;;;;;;5.47;3.08;;;9.70;99.90;;;;;;5091849;28;20028;-44
2021/04/20 03:26:26;;;;;;;3.50;2.65;;;9.70;99.90;;;;;;5093486;28;20032;-48
2021/04/20 03:29:03;;;;;;;3.40;2.38;;;9.80;99.90;;;;;;5093461;28;20036;-46
2021/04/20 03:31:29;;;;;;;5.03;3.22;;;9.80;99.90;;;;;;5074766;28;20485;-43
2021/04/20 03:34:22;;;;;;;4.75;3.13;;;9.80;99.90;;;;;;5093731;28;20028;-45
2021/04/20 03:37:17;;;;;;;4.00;2.63;;;9.80;99.90;;;;;;5074929;28;20036;-44
2021/04/20 03:39:46;;;;;;;4.85;3.00;;;9.90;99.90;;;;;;5093799;28;20008;-48
2021/04/20 03:42:22;;;;;;;3.88;2.90;;;9.90;99.90;;;;;;5091542;28;20039;-47
2021/04/20 03:44:53;;;;;;;5.68;2.80;;;9.90;99.90;;;;;;5093816;28;20029;-44
2021/04/20 03:47:23;;;;;;;4.22;3.05;;;9.90;99.90;;;;;;5074832;28;20082;-46
2021/04/20 03:49:51;;;;;;;4.72;3.42;;;9.80;99.90;;;;;;5093547;28;20535;-47
2021/04/20 03:52:23;;;;;;;4.80;3.03;;;9.80;99.90;;;;;;5093614;28;20024;-45
2021/04/20 03:54:51;;;;;;;5.30;3.05;;;9.80;99.90;;;;;;5093323;28;20028;-47
2021/04/20 03:57:19;;;;;;;6.15;3.47;;;9.90;99.90;;;;;;5093256;28;20028;-49
2021/04/20 03:59:46;;;;;;;5.13;3.22;;;10.00;99.90;;;;;;5093024;28;20028;-47
2021/04/20 04:02:13;;;;;;;6.63;2.85;;;9.90;99.90;;;;;;5091341;28;20036;-48
2021/04/20 04:04:42;;;;;;;5.22;3.30;;;9.90;99.90;;;;;;5093738;28;20173;-46
2021/04/20 04:07:08;;;;;;;4.32;2.85;;;10.00;99.90;;;;;;5092849;28;20052;-45
2021/04/20 04:09:36;;;;;;;6.40;3.53;;;9.90;99.90;;;;;;5093282;28;20123;-47
2021/04/20 04:12:05;;;;;;;5.38;3.28;;;9.90;99.90;;;;;;5057605;28;20141;-47
2021/04/20 04:14:34;;;;;;;5.68;4.05;;;9.80;99.90;;;;;;5093151;28;20028;-49
2021/04/20 04:17:05;;;;;;;4.80;3.58;;;9.90;99.90;;;;;;5091633;28;20048;-50
2021/04/20 04:19:38;;;;;;;4.07;3.03;;;10.00;99.90;;;;;;5093276;28;20375;-46
2021/04/20 04:22:09;;;;;;;5.35;3.28;;;9.90;99.90;;;;;;5094389;28;20261;-47
2021/04/20 04:24:47;;;;;;;5.40;3.40;;;9.90;99.90;;;;;;5096887;28;20070;-46
2021/04/20 04:38:49;;;;;;;4.97;3.53;;;10.30;99.90;;;;;;5110951;27;20146;-48
2021/04/20 04:41:16;;;;;;;5.55;4.30;;;10.50;99.90;;;;;;5038979;28;20047;-47
2021/04/20 04:43:42;;;;;;;7.72;4.15;;;10.50;99.90;;;;;;5091104;28;20024;-49
2021/04/20 04:46:09;;;;;;;7.25;5.70;;;10.50;99.90;;;;;;5090650;28;20099;-47
2021/04/20 04:48:37;;;;;;;8.32;6.15;;;10.40;99.90;;;;;;5090717;28;20094;-48
2021/04/20 04:51:04;;;;;;;9.23;5.32;;;10.50;99.90;;;;;;5038644;28;20119;-49
2021/04/20 04:53:33;;;;;;;6.25;4.25;;;10.40;99.90;;;;;;5090490;28;20028;-45
2021/04/20 04:56:01;;;;;;;7.35;4.25;;;10.30;99.90;;;;;;5090223;28;20031;-47
2021/04/20 04:58:30;;;;;;;6.10;4.00;;;10.40;99.90;;;;;;5038236;28;20047;-45
2021/04/20 05:00:58;;;;;;;10.23;5.95;;;10.40;99.90;;;;;;5090471;28;20112;-46
2021/04/20 05:03:24;;;;;;;14.15;7.80;;;10.40;99.90;;;;;;5090576;28;20063;-50
2021/04/20 05:05:55;;;;;;;6.75;4.28;;;10.40;99.90;;;;;;5090717;28;20033;-46
2021/04/20 05:08:21;;;;;;;7.57;5.13;;;10.50;99.90;;;;;;5005217;28;20052;-47
2021/04/20 05:10:48;;;;;;;10.82;6.90;;;10.50;99.90;;;;;;5090006;28;20113;-48
2021/04/20 05:13:14;;;;;;;6.22;4.80;;;10.40;99.90;;;;;;5089806;28;20035;-48
2021/04/20 05:15:39;;;;;;;7.47;4.70;;;10.40;99.90;;;;;;5090289;28;20025;-48
2021/04/20 05:18:10;;;;;;;7.47;4.60;;;10.40;99.90;;;;;;5090107;28;20024;-47
2021/04/20 05:20:42;;;;;;;8.05;6.03;;;10.40;99.90;;;;;;5089974;28;20406;-46
2021/04/20 05:23:09;;;;;;;7.68;4.72;;;10.40;99.90;;;;;;5027576;28;20489;-50
2021/04/20 05:25:35;;;;;;;8.13;5.18;;;10.40;99.90;;;;;;5027577;28;20040;-47
2021/04/20 05:28:01;;;;;;;15.82;8.32;;;10.40;99.90;;;;;;5027345;28;20046;-51
2021/04/20 05:30:27;;;;;;;8.98;5.55;;;10.40;99.90;;;;;;5027806;28;20036;-48
2021/04/20 05:32:53;;;;;;;9.45;5.53;;;10.30;99.90;;;;;;5011247;28;20044;-51
2021/04/20 05:35:22;;;;;;;14.35;5.25;;;10.20;99.90;;;;;;5027397;28;20388;-50
2021/04/20 05:37:48;;;;;;;8.50;5.03;;;10.30;99.90;;;;;;5025061;28;20073;-47
2021/04/20 05:40:21;;;;;;;10.73;5.45;;;10.30;99.90;;;;;;5013861;28;20519;-45
2021/04/20 05:42:46;;;;;;;10.30;5.20;;;10.40;99.90;;;;;;5004833;28;20051;-52
2021/04/20 05:45:14;;;;;;;7.97;5.30;;;10.50;99.90;;;;;;4970179;28;20034;-48
2021/04/20 05:47:42;;;;;;;8.10;4.95;;;10.50;99.90;;;;;;5004268;28;20030;-46
2021/04/20 05:50:11;;;;;;;9.70;5.45;;;10.50;99.90;;;;;;5003047;28;20031;-52
2021/04/20 05:52:37;;;;;;;9.48;5.97;;;10.60;99.90;;;;;;4970107;28;20129;-50
2021/04/20 05:55:05;;;;;;;9.40;5.45;;;10.50;99.90;;;;;;4983656;28;20033;-51
2021/04/20 05:57:31;;;;;;;8.02;5.55;;;10.60;99.90;;;;;;5012931;28;20110;-52
2021/04/20 05:59:58;;;;;;;9.32;5.00;;;10.60;99.90;;;;;;5028235;28;20175;-49
2021/04/20 06:02:29;;;;;;;10.40;5.68;;;10.60;99.90;;;;;;5061053;28;20071;-51
2021/04/20 06:04:59;;;;;;;8.00;5.32;;;10.60;99.90;;;;;;5075868;28;20098;-45
2021/04/20 06:07:26;;;;;;;9.82;5.70;;;10.60;99.90;;;;;;5076043;28;20041;-52
2021/04/20 06:09:52;;;;;;;9.32;5.88;;;10.60;99.90;;;;;;5057235;28;20064;-52
2021/04/20 06:12:18;;;;;;;8.52;5.45;;;10.60;99.90;;;;;;5075641;28;20032;-47
2021/04/20 06:14:48;;;;;;;7.68;5.13;;;10.70;99.90;;;;;;5075324;28;20090;-50
2021/04/20 06:17:14;;;;;;;7.38;5.60;;;10.70;99.90;;;;;;5075190;28;20103;-48
2021/04/20 06:19:41;;;;;;;9.73;6.22;;;10.70;99.90;;;;;;5007296;28;20033;-51
2021/04/20 06:22:16;;;;;;;9.77;6.18;;;10.70;99.90;;;;;;5075195;28;20025;-48
2021/04/20 06:24:44;;;;;;;8.65;5.65;;;10.70;99.90;;;;;;5075236;28;20028;-48
2021/04/20 06:27:12;;;;;;;9.65;5.63;;;10.80;99.90;;;;;;5074863;28;20537;-52
2021/04/20 06:29:37;;;;;;;10.25;6.40;;;10.90;99.90;;;;;;5075408;28;20024;-50
2021/04/20 06:32:04;;;;;;;9.43;6.22;;;11.00;99.90;;;;;;5040166;28;20563;-55
2021/04/20 06:34:31;;;;;;;12.45;6.95;;;11.00;99.90;;;;;;5074889;28;20498;-50
2021/04/20 06:36:57;;;;;;;10.27;5.80;;;11.10;99.90;;;;;;5074874;28;20154;-50
2021/04/20 06:39:23;;;;;;;16.50;7.78;;;10.90;99.90;;;;;;5075200;28;20025;-46
2021/04/20 06:41:53;;;;;;;13.70;8.15;;;11.00;99.90;;;;;;5072006;28;20107;-54
2021/04/20 06:44:51;;;;;;;13.80;8.27;;;11.10;99.90;;;;;;5075211;28;20048;-47
2021/04/20 06:47:37;;;;;;;10.27;6.28;;;11.20;99.90;;;;;;5074668;28;20368;-52
2021/04/20 06:50:05;;;;;;;12.20;7.72;;;11.00;99.90;;;;;;5056410;28;20123;-48
2021/04/20 06:52:55;;;;;;;10.70;7.78;;;11.10;99.90;;;;;;5039693;28;20040;-49
2021/04/20 06:55:26;;;;;;;11.57;7.25;;;11.20;99.90;;;;;;5074980;28;20038;-54
2021/04/20 06:58:13;;;;;;;11.07;6.97;;;11.30;99.90;;;;;;5075010;28;20020;-51
2021/04/20 07:01:02;;;;;;;12.13;7.55;;;11.30;99.90;;;;;;5074526;28;20043;-49
2021/04/20 07:03:40;;;;;;;14.23;7.40;;;11.40;99.90;;;;;;5074154;28;20016;-56
2021/04/20 07:06:23;;;;;;;9.82;5.95;;;11.40;99.90;;;;;;5074181;28;20074;-45
2021/04/20 07:09:15;;;;;;;12.32;7.13;;;11.40;99.90;;;;;;5074388;28;20494;-51
2021/04/20 07:11:45;;;;;;;;;;;11.50;99.90;;;;;;5039804;28;20102;-50
2021/04/20 07:14:37;;;;;;;11.23;5.97;;;11.60;99.90;;;;;;5039190;28;19908;-48
2021/04/20 07:17:19;;;;;;;6.80;3.75;;;11.60;99.90;;;;;;5055588;28;20032;-49
2021/04/20 07:19:55;;;;;;;7.93;5.13;;;11.50;99.90;;;;;;5074346;28;20459;-52
2021/04/20 07:22:42;;;;;;;10.13;6.55;;;11.70;99.90;;;;;;5074115;28;20070;-48
2021/04/20 07:25:34;;;;;;;11.40;6.57;;;11.80;99.90;;;;;;5074401;28;20044;-46
2021/04/20 07:28:38;;;;;;;9.57;5.78;;;11.80;99.90;;;;;;5074270;28;20478;-48
2021/04/20 07:31:58;;;;;;;8.65;5.90;;;11.80;99.90;;;;;;5038323;28;20368;-52
2021/04/20 07:34:41;;;;;;;9.80;5.65;;;11.90;99.90;;;;;;4973119;28;20058;-51
2021/04/20 07:37:42;;;;;;;8.68;6.00;;;11.70;99.90;;;;;;4940121;29;20122;-48
2021/04/20 07:40:34;;;;;;;8.32;5.57;;;12.00;99.90;;;;;;4953894;29;20031;-49
2021/04/20 07:43:09;;;;;;;8.20;5.97;;;;;;;;;;4953670;29;20031;-51
2021/04/20 07:45:47;;;;;;;9.68;5.63;;;;;;;;;;4953677;28;20125;-46
2021/04/20 07:48:36;;;;;;;9.45;6.05;;;12.60;99.90;;;;;;4953524;29;20055;-51
2021/04/20 07:51:14;;;;;;;7.38;4.93;;;12.80;99.90;;;;;;4953676;28;20027;-46
2021/04/20 07:53:50;;;;;;;7.95;5.57;;;12.70;99.90;;;;;;4953629;28;20041;-47
2021/04/20 07:56:22;;;;;;;17.23;9.20;;;;;;;;;;4953331;29;20042;-49
2021/04/20 07:58:51;;;;;;;63.88;26.75;;;13.10;99.90;;;;;;4953532;28;20059;-53
2021/04/20 08:01:41;;;;;;;28.65;11.50;;;13.20;99.90;;;;;;4953277;28;20390;-51
2021/04/20 08:04:35;;;;;;;15.30;7.35;;;13.10;99.90;;;;;;4953511;29;20063;-47
2021/04/20 08:07:17;;;;;;;19.05;10.85;;;13.30;99.90;;;;;;4957956;28;20126;-49
2021/04/20 08:09:48;;;;;;;11.50;7.60;;;13.50;99.90;;;;;;5053571;28;20032;-48
2021/04/20 08:12:22;;;;;;;8.60;5.72;;;13.30;99.90;;;;;;5053828;28;20118;-47
2021/04/20 08:15:14;;;;;;;12.27;7.82;;;;;;;;;;5053313;28;20032;-50
2021/04/20 08:17:45;;;;;;;8.38;5.75;;;13.70;99.90;;;;;;5014783;28;20112;-50
2021/04/20 08:20:16;;;;;;;7.78;5.35;;;13.60;99.90;;;;;;4959499;28;20393;-45
2021/04/20 08:22:44;;;;;;;7.07;5.22;;;13.50;99.90;;;;;;4992159;28;20034;-49
2021/04/20 08:25:16;;;;;;;7.05;4.85;;;13.80;99.90;;;;;;4927771;28;20030;-51
2021/04/20 08:28:04;;;;;;;;;;;13.50;99.90;;;;;;4992113;28;20049;-45
2021/04/20 08:31:11;;;;;;;8.75;5.88;;;13.60;99.90;;;;;;4877813;29;19907;-49
2021/04/20 08:33:40;;;;;;;7.97;5.60;;;13.50;99.90;;;;;;4877355;29;20037;-49
2021/04/20 08:36:15;;;;;;;9.82;5.60;;;13.40;99.90;;;;;;4877536;29;20049;-50
2021/04/20 08:38:51;;;;;;;8.68;5.53;;;13.60;99.90;;;;;;4895360;29;20681;-50
2021/04/20 08:41:24;;;;;;;9.48;5.20;;;13.50;99.90;;;;;;4896219;29;20595;-49
2021/04/20 08:44:04;;;;;;;7.82;4.47;;;13.40;99.90;;;;;;4896145;29;20033;-50
2021/04/20 08:47:00;;;;;;;8.82;5.05;;;13.60;99.90;;;;;;4895887;29;20037;-48
2021/04/20 08:49:49;;;;;;;10.23;5.78;;;13.70;99.90;;;;;;4896015;29;20029;-49
2021/04/20 08:52:47;;;;;;;14.65;7.22;;;14.20;99.90;;;;;;4949979;29;20039;-47
2021/04/20 08:55:34;;;;;;;8.88;6.07;;;14.20;99.90;;;;;;4952985;29;20062;-48
2021/04/20 08:58:08;;;;;;;10.50;6.10;;;14.30;99.90;;;;;;4952807;29;20023;-50
2021/04/20 09:01:17;;;;;;;13.75;7.85;;;14.50;99.90;;;;;;4952856;29;20032;-48
2021/04/20 09:04:01;;;;;;;11.73;6.05;;;14.80;99.90;;;;;;4937079;29;20067;-48
2021/04/20 09:06:45;;;;;;;10.55;6.07;;;14.80;99.90;;;;;;4958710;28;20530;-47
2021/04/20 09:09:14;;;;;;;10.90;5.78;;;15.00;99.90;;;;;;5053066;28;20036;-48
2021/04/20 09:11:46;;;;;;;7.40;5.03;;;;;;;;;;5052974;28;20476;-48
2021/04/20 09:14:16;;;;;;;;;;;16.00;99.90;;;;;;5053894;28;20422;-51
2021/04/20 09:16:58;;;;;;;10.85;5.57;;;16.00;99.90;;;;;;5046374;28;19948;-50
2021/04/20 09:19:33;;;;;;;6.93;4.68;;;16.20;99.90;;;;;;5046904;28;20430;-49
2021/04/20 09:22:10;;;;;;;10.40;5.18;;;16.10;99.90;;;;;;5042076;28;20042;-46
2021/04/20 09:24:53;;;;;;;16.60;7.63;;;16.10;99.90;;;;;;5036664;28;20076;-54
2021/04/20 09:27:28;;;;;;;52.33;19.27;;;16.00;99.90;;;;;;4999312;28;20404;-49
2021/04/20 09:29:59;;;;;;;9.48;6.25;;;15.90;99.90;;;;;;5056505;28;20029;-52
2021/04/20 09:32:35;;;;;;;8.45;5.07;;;16.60;99.90;;;;;;5051091;28;20127;-48
2021/04/20 09:35:03;;;;;;;40.35;15.05;;;16.90;99.90;;;;;;5028420;28;20480;-49
2021/04/20 09:37:32;;;;;;;29.10;12.35;;;17.00;99.90;;;;;;5050254;28;20099;-49
2021/04/20 09:40:00;;;;;;;11.32;6.65;;;16.90;99.90;;;;;;5056153;28;20025;-47
2021/04/20 09:42:27;;;;;;;10.40;6.20;;;16.80;99.90;;;;;;5056156;28;20476;-49
2021/04/20 09:45:19;;;;;;;8.02;4.57;;;16.60;99.90;;;;;;5056076;28;20075;-48
2021/04/20 09:48:06;;;;;;;10.60;5.65;;;15.80;99.90;;;;;;5056252;28;20430;-49
2021/04/20 09:50:44;;;;;;;13.18;7.10;;;15.50;99.90;;;;;;5037250;28;20032;-48
2021/04/20 09:53:11;;;;;;;8.02;5.50;;;;;;;;;;5056031;28;20053;-49
2021/04/20 09:56:01;;;;;;;23.17;9.80;;;15.10;99.90;;;;;;5055716;28;20524;-50
2021/04/20 09:58:29;;;;;;;16.10;7.57;;;15.30;99.90;;;;;;5055610;28;20029;-49
2021/04/20 10:01:01;;;;;;;9.38;5.40;;;15.70;99.90;;;;;;5037637;28;20426;-50
2021/04/20 10:03:45;;;;;;;;;;;15.50;99.90;;;;;;5056535;28;20024;-48
2021/04/20 10:06:23;;;;;;;12.73;6.97;;;15.80;99.90;;;;;;5055352;28;19912;-51
2021/04/20 10:09:07;;;;;;;23.63;9.15;;;15.90;99.90;;;;;;5055540;28;20040;-48
2021/04/20 10:12:12;;;;;;;121.38;36.33;;;16.10;99.90;;;;;;5056359;28;20472;-49
2021/04/20 10:15:07;;;;;;;129.95;38.50;;;16.30;99.90;;;;;;5055559;28;20021;-49
2021/04/20 10:17:42;;;;;;;10.95;6.18;;;16.60;99.90;;;;;;4955435;29;20047;-48
2021/04/20 10:20:19;;;;;;;125.85;40.58;;;;;;;;;;4955349;29;20039;-51
2021/04/20 10:23:03;;;;;;;9.57;6.13;;;17.10;99.90;;;;;;4955281;29;20047;-48
2021/04/20 10:25:50;;;;;;;6.55;4.57;;;17.20;99.90;;;;;;4970800;28;20122;-46
2021/04/20 10:28:35;;;;;;;9.30;5.28;;;17.30;99.90;;;;;;4955104;29;20055;-50
2021/04/20 10:31:08;;;;;;;52.80;22.98;;;17.60;99.90;;;;;;4955189;29;20402;-50
2021/04/20 10:33:34;;;;;;;12.68;7.20;;;;;;;;;;4954537;29;20063;-46
2021/04/20 10:36:01;;;;;;;7.47;4.97;;;16.60;99.90;;;;;;4955210;29;20043;-50
2021/04/20 10:38:30;;;;;;;9.48;5.90;;;16.70;99.90;;;;;;4954632;28;20077;-51
2021/04/20 10:40:56;;;;;;;9.70;6.07;;;16.50;99.90;;;;;;4954894;28;20042;-52
2021/04/20 10:43:25;;;;;;;8.10;5.07;;;16.60;99.90;;;;;;4955176;29;20030;-50
2021/04/20 10:45:53;;;;;;;8.70;5.70;;;16.70;99.90;;;;;;4954784;29;20434;-51
2021/04/20 10:48:27;;;;;;;10.45;6.07;;;16.80;99.90;;;;;;4948994;29;20077;-49
2021/04/20 10:50:55;;;;;;;8.32;4.38;;;16.60;99.90;;;;;;4954954;29;20049;-49
2021/04/20 10:53:30;;;;;;;12.45;5.80;;;16.40;99.90;;;;;;4969572;28;20528;-51
2021/04/20 10:56:02;;;;;;;9.40;5.47;;;16.40;99.90;;;;;;5013074;28;20030;-48
2021/04/20 10:58:29;;;;;;;7.30;5.30;;;16.10;99.90;;;;;;5012888;28;20510;-47
2021/04/20 11:00:56;;;;;;;6.15;4.40;;;16.00;99.90;;;;;;5012498;28;20037;-48
2021/04/20 11:03:33;;;;;;;9.65;5.80;;;16.00;99.90;;;;;;5012913;28;20112;-51
2021/04/20 11:05:59;;;;;;;7.90;4.78;;;16.10;99.90;;;;;;5012886;28;20038;-47
2021/04/20 11:08:46;;;;;;;8.68;4.88;;;16.20;99.90;;;;;;5012730;28;20046;-50
2021/04/20 11:11:19;;;;;;;7.95;5.35;;;16.00;99.90;;;;;;5000507;28;20030;-47
2021/04/20 11:13:45;;;;;;;15.20;6.45;;;15.90;99.90;;;;;;4992923;28;20066;-47
2021/04/20 11:16:14;;;;;;;9.75;4.78;;;15.40;99.90;;;;;;4961003;28;20474;-47
2021/04/20 11:18:47;;;;;;;4.72;3.33;;;15.10;99.90;;;;;;5007641;28;20388;-50
2021/04/20 11:21:20;;;;;;;5.80;3.72;;;14.90;99.90;;;;;;5054277;28;20029;-48
2021/04/20 11:24:18;;;;;;;8.85;4.28;;;14.70;99.90;;;;;;5054089;28;20051;-51
2021/04/20 11:26:50;;;;;;;9.63;4.03;;;14.00;99.90;;;;;;5054509;28;20411;-48
2021/04/20 11:29:30;;;;;;;6.63;4.32;;;;;;;;;;5054581;28;20032;-50
2021/04/20 11:31:57;;;;;;;5.90;4.28;;;13.70;99.90;;;;;;5054140;28;20468;-51
2021/04/20 11:34:31;;;;;;;6.25;3.83;;;13.70;99.90;;;;;;5053966;28;20071;-48
2021/04/20 11:37:11;;;;;;;6.57;4.60;;;13.40;99.90;;;;;;5015133;28;20374;-52
2021/04/20 11:39:36;;;;;;;6.18;3.67;;;13.30;99.90;;;;;;5032391;28;20033;-47
2021/04/20 11:42:04;;;;;;;5.45;3.33;;;13.50;99.90;;;;;;5034270;28;20029;-48
2021/04/20 11:44:39;;;;;;;4.90;3.45;;;13.50;99.90;;;;;;5034146;28;20496;-51
2021/04/20 11:47:08;;;;;;;7.22;4.28;;;13.50;99.90;;;;;;5034111;28;20030;-45
2021/04/20 11:49:37;;;;;;;7.40;4.35;;;13.50;99.90;;;;;;5034082;28;20480;-47
2021/04/20 11:52:05;;;;;;;7.38;3.47;;;13.60;99.90;;;;;;5016333;28;20033;-45
2021/04/20 11:54:34;;;;;;;11.93;6.60;;;13.70;99.90;;;;;;5034267;28;20036;-49
2021/04/20 11:57:05;;;;;;;6.22;4.43;;;13.80;99.90;;;;;;5034229;28;20029;-48
2021/04/20 11:59:32;;;;;;;4.72;3.33;;;13.90;99.90;;;;;;5033765;28;20033;-48
2021/04/20 12:02:00;;;;;;;4.70;3.20;;;14.00;99.90;;;;;;5032046;28;20037;-46
2021/04/20 12:04:39;;;;;;;4.47;2.85;;;14.20;99.90;;;;;;5032101;28;20037;-46
2021/04/20 12:07:07;;;;;;;3.58;2.30;;;14.30;99.90;;;;;;5033796;28;20090;-49
2021/04/20 12:09:39;;;;;;;4.45;2.90;;;14.50;99.90;;;;;;5033815;28;20029;-47
2021/04/20 12:12:06;;;;;;;4.72;2.88;;;14.60;99.90;;;;;;5034072;28;20032;-47
2021/04/20 12:14:37;;;;;;;4.38;2.90;;;14.60;99.90;;;;;;4999394;28;20140;-51
2021/04/20 12:17:03;;;;;;;3.65;2.58;;;14.60;99.90;;;;;;5033952;28;20079;-50
2021/04/20 12:19:32;;;;;;;3.90;3.00;;;14.70;99.90;;;;;;5033730;28;20380;-47
2021/04/20 12:22:00;;;;;;;12.50;6.75;;;14.90;99.90;;;;;;5033632;28;20037;-47
2021/04/20 12:24:28;;;;;;;5.53;3.40;;;15.00;99.90;;;;;;5033363;28;20487;-48
2021/04/20 12:27:03;;;;;;;6.47;3.75;;;15.10;99.90;;;;;;5033209;28;20036;-50
2021/04/20 12:29:33;;;;;;;5.85;3.33;;;15.20;99.90;;;;;;5033660;28;20037;-46
2021/04/20 12:31:59;;;;;;;5.57;3.33;;;15.40;99.90;;;;;;5031227;28;20132;-49
2021/04/20 12:34:27;;;;;;;4.18;3.35;;;15.60;99.90;;;;;;5033316;28;20049;-52
2021/04/20 12:37:00;;;;;;;5.45;3.53;;;15.80;99.90;;;;;;5037389;28;20381;-48
2021/04/20 12:39:47;;;;;;;4.63;3.25;;;16.00;99.90;;;;;;5053104;28;20093;-51
2021/04/20 12:42:16;;;;;;;8.32;3.60;;;16.20;99.90;;;;;;5053398;28;20507;-50
2021/04/20 12:44:48;;;;;;;9.07;4.28;;;16.30;99.90;;;;;;5057133;28;20383;-48
2021/04/20 12:47:15;;;;;;;;;;;16.20;99.90;;;;;;5061908;28;20467;-50
2021/04/20 12:49:49;;;;;;;4.93;3.60;;;16.30;99.90;;;;;;5038846;28;19908;-48
2021/04/20 12:52:17;;;;;;;6.90;4.65;;;16.30;99.90;;;;;;5067918;28;20065;-49
2021/04/20 12:54:46;;;;;;;4.85;3.55;;;16.30;99.90;;;;;;5065572;28;20087;-52
2021/04/20 12:57:19;;;;;;;5.93;3.78;;;16.20;99.90;;;;;;5066689;28;20029;-48
2021/04/20 12:59:50;;;;;;;5.53;3.55;;;16.10;99.90;;;;;;5066882;28;20028;-50
2021/04/20 13:02:20;;;;;;;6.68;4.40;;;16.00;99.90;;;;;;5072726;28;20379;-51
2021/04/20 13:04:47;;;;;;;8.68;4.10;;;16.00;99.90;;;;;;5076642;28;20476;-47
2021/04/20 13:07:14;;;;;;;7.82;4.72;;;15.60;99.90;;;;;;5076681;28;20028;-50
2021/04/20 13:09:43;;;;;;;6.10;4.30;;;15.80;99.90;;;;;;5023456;28;20047;-46
2021/04/20 13:12:12;;;;;;;7.22;4.80;;;15.80;99.90;;;;;;5075611;28;20495;-52
2021/04/20 13:14:39;;;;;;;9.05;3.97;;;15.90;99.90;;;;;;5075596;28;20024;-52
2021/04/20 13:17:06;;;;;;;12.90;5.25;;;15.80;99.90;;;;;;5023614;28;20039;-49
2021/04/20 13:19:37;;;;;;;14.38;7.82;;;15.80;99.90;;;;;;5075524;28;20031;-49
2021/04/20 13:22:04;;;;;;;9.25;4.90;;;15.90;99.90;;;;;;5056637;28;20462;-48
2021/04/20 13:24:34;;;;;;;5.60;4.32;;;15.50;99.90;;;;;;5075408;28;20074;-49
2021/04/20 13:27:02;;;;;;;6.53;4.43;;;15.50;99.90;;;;;;5075092;28;20056;-48